• Join FlightAware (Why Join?)
  • Login
  • US Flag 
Gobble Gobble! 
07:18AM EST


 

Airport Tracker/Info


-or-


 

Live Flight TrackerFlight Track Log ✈ SWA315 ✈ 08-Apr-2013 ✈ KOAK - KPHX

Flight Track Log - Related Links

Times and Time Zones

All times are in EDT time to prevent confusion due to time zone crossing. See the SWA315 flight status page for this flight to view local times or setup timezone preferences in your user account.

Time Position Orientation Groundspeed Altitude Reporting Facility
EDT Latitude Longitude Course Direction KTS MPH feet Rate Location/Type
12:37AM 37.7167 -122.2333 303° West 135 155 1,100  Level Northern Cal TRACON
12:38AM 37.7325 -122.2644 303° West 148 170 1,900 960 Climbing Oakland Center
12:39AM 37.7569 -122.3322 295° West 214 246 3,000 2,160 Climbing Oakland Center
12:40AM 37.7214 -122.4175 242° Southwest 270 311 6,300 3,660 Climbing Oakland Center
12:41AM 37.6500 -122.4664 208° Southwest 317 365 10,500 3,000 Climbing Oakland Center
12:42AM 37.5531 -122.4353 166° South 398 458 12,500 2,580 Climbing Oakland Center
12:43AM 37.4886 -122.3108 123° Southeast 429 494 15,800 3,480 Climbing Oakland Center
12:44AM 37.3886 -122.1625 130° Southeast 465 535 19,600 3,180 Climbing Oakland Center
12:45AM 37.3011 -122.0325 130° Southeast 484 557 22,300 2,400 Climbing Oakland Center
12:46AM 37.2083 -121.8947 130° Southeast 515 593 24,500 2,100 Climbing Oakland Center
12:47AM 37.1225 -121.7672 130° Southeast 529 609 26,600 2,520 Climbing Oakland Center
12:48AM 37.0122 -121.6097 131° Southeast 545 627 29,700 2,940 Climbing Oakland Center
12:49AM 36.9169 -121.4703 130° Southeast 533 613 32,600 2,640 Climbing Oakland Center
12:50AM 36.8244 -121.3325 130° Southeast 521 600 35,100 1,980 Climbing Oakland Center
12:51AM 36.7264 -121.1917 131° Southeast 515 593 36,700 1,140 Climbing Oakland Center
12:52AM 36.6303 -121.0531 131° Southeast 528 608 37,500 900 Climbing Oakland Center
12:53AM 36.5297 -120.9092 131° Southeast 547 629 38,600 660 Climbing Oakland Center
12:55AM 36.4328 -120.7672 130° Southeast 540 621 38,900 180 Climbing Oakland Center
12:56AM 36.3347 -120.6308 132° Southeast 531 611 39,000  Climbing Oakland Center
12:57AM 36.2358 -120.4939 132° Southeast 531 611 39,000  Level Oakland Center
12:58AM 36.1528 -120.3383 123° Southeast 535 616 39,000  Level Oakland Center
12:59AM 36.0836 -120.1761 118° Southeast 529 609 39,000  Level Oakland Center
01:00AM 36.0158 -120.0158 118° Southeast 526 605 39,000  Level Oakland Center
01:01AM 35.9494 -119.8617 118° Southeast 510 587 39,000  Level Oakland Center
01:02AM 35.8819 -119.7050 118° Southeast 513 590 39,000  Level Oakland Center
01:03AM 35.8139 -119.5461 118° Southeast 519 597 39,000  Level Oakland Center
01:04AM 35.7453 -119.3875 118° Southeast 523 602 39,000 -60 Level Oakland Center
01:05AM 35.6606 -119.1953 118° Southeast 529 609 38,900  Descending Oakland Center
01:06AM 35.5942 -119.0381 117° Southeast 520 598 39,000  Climbing Oakland Center
01:07AM 35.5242 -118.8769 118° Southeast 529 609 39,000  Level Oakland Center
01:08AM 35.4556 -118.7192 118° Southeast 527 606 39,000  Level Oakland Center
01:09AM 35.3831 -118.5625 120° Southeast 524 603 39,000  Level Los Angeles Center
01:10AM 35.3114 -118.4022 119° Southeast 518 596 39,000  Level Los Angeles Center
01:11AM 35.2428 -118.2489 119° Southeast 515 593 39,000  Level Los Angeles Center
01:12AM 35.1753 -118.0964 118° Southeast 515 593 39,000  Level Los Angeles Center
01:13AM 35.1064 -117.9478 120° Southeast 508 585 39,000 -60 Level Los Angeles Center
01:14AM 35.0386 -117.7981 119° Southeast 509 586 38,900 -540 Descending Los Angeles Center
01:15AM 34.9717 -117.6494 119° Southeast 515 593 38,000 -960 Descending Los Angeles Center
01:16AM 34.9061 -117.5075 119° Southeast 495 570 37,000 -540 Descending Los Angeles Center
01:17AM 34.8247 -117.3303 119° Southeast 504 580 37,000  Level Los Angeles Center
01:18AM 34.7567 -117.1825 119° Southeast 506 582 37,000  Level Los Angeles Center
01:19AM 34.6878 -117.0339 119° Southeast 507 583 37,000  Level Los Angeles Center
01:20AM 34.6189 -116.8864 120° Southeast 507 583 37,000  Level Los Angeles Center
01:21AM 34.5489 -116.7378 120° Southeast 510 587 37,000  Level Los Angeles Center
01:22AM 34.4794 -116.5886 119° Southeast 512 589 37,000  Level Los Angeles Center
01:23AM 34.4075 -116.4389 120° Southeast 514 592 37,000  Level Los Angeles Center
01:24AM 34.3383 -116.2858 119° Southeast 518 596 37,000  Level Los Angeles Center
01:25AM 34.2661 -116.1375 120° Southeast 513 590 37,000  Level Los Angeles Center
01:26AM 34.1808 -115.9608 120° Southeast 509 586 37,000  Level Los Angeles Center
01:27AM 34.1181 -115.8281 120° Southeast 511 588 37,000 -60 Level Los Angeles Center
01:28AM 34.0458 -115.6814 121° Southeast 510 587 36,900  Descending Los Angeles Center
01:29AM 33.9733 -115.5328 120° Southeast 513 590 37,000  Climbing Los Angeles Center
01:30AM 33.9011 -115.3856 121° Southeast 512 589 36,900  Descending Los Angeles Center
01:31AM 33.8144 -115.2075 120° Southeast 512 589 37,000  Climbing Los Angeles Center
01:32AM 33.7467 -115.0553 118° Southeast 517 595 37,000  Level Los Angeles Center
01:33AM 33.7022 -114.8950 108° East 509 586 37,000 -960 Level Los Angeles Center
01:34AM 33.6531 -114.7331 110° East 512 589 35,100 -2,280 Descending Los Angeles Center
01:35AM 33.6208 -114.6044 107° East 512 589 32,900 -2,580 Descending Albuquerque Center
01:36AM 33.5753 -114.4500 109° East 499 574 30,500 -2,340 Descending Albuquerque Center
01:37AM 33.5300 -114.3011 110° East 481 554 28,200 -2,160 Descending Albuquerque Center
01:38AM 33.4875 -114.1592 110° East 461 531 26,200 -1,620 Descending Albuquerque Center
01:39AM 33.4506 -114.0206 108° East 440 506 25,000 -600 Descending Albuquerque Center
01:40AM 33.4233 -113.8828 103° East 427 491 25,000  Level Albuquerque Center
01:41AM 33.3958 -113.7442 103° East 427 491 25,000  Level Albuquerque Center
01:42AM 33.3711 -113.6044 102° East 429 494 25,000  Level Albuquerque Center
01:43AM 33.3567 -113.4581 97° East 441 507 25,000 -780 Level Albuquerque Center
01:44AM 33.3400 -113.3164 98° East 433 498 23,500 -1,920 Descending Albuquerque Center
01:45AM 33.3233 -113.1814 98° East 418 481 21,200 -2,280 Descending Albuquerque Center
01:46AM 33.3081 -113.0519 98° East 401 461 19,000 -2,340 Descending Albuquerque Center
01:47AM 33.2936 -112.9281 98° East 385 443 16,500 -1,560 Descending Albuquerque Center
01:48AM 33.2797 -112.8078 98° East 372 428 15,900 -300 Descending Albuquerque Center
01:49AM 33.2831 -112.6842 88° East 371 427 16,000 -600 Climbing Albuquerque Center
01:50AM 33.2867 -112.5492 88° East 372 428 14,700 -1,740 Descending Albuquerque Center
01:51AM 33.2903 -112.4286 88° East 367 422 12,600 -2,160 Descending Albuquerque Center
01:52AM 33.2942 -112.3106 88° East 359 413 10,400 -1,500 Descending Albuquerque Center
01:53AM 33.3033 -112.2008 84° East 335 386 9,600 -1,200 Descending Albuquerque Center
01:54AM 33.3106 -112.1011 85° East 307 353 8,000 -1,680 Descending Albuquerque Center
01:55AM 33.3333 -112.0081 74° East 293 337 6,300 -1,500 Descending Albuquerque Center
01:56AM 33.3464 -111.9186 80° East 278 320 5,000 -960 Descending Albuquerque Center
01:57AM 33.3714 -111.8567 64° Northeast 230 265 4,400 -1,080 Descending Albuquerque Center
01:58AM 33.4222 -111.8856 335° Northwest 213 245 2,900 -1,200 Descending Albuquerque Center
01:59AM 33.4322 -111.9406 282° West 167 192 2,100 -900 Descending Albuquerque Center
02:00AM 33.4308 -111.9906 268° West 143 165 1,200 -900 Descending Albuquerque Center